sensor_id;sensor_type;location;lat;lon;timestamp;P1;durP1;ratioP1;P2;durP2;ratioP2
63959;SDS011;50136;51.374;0.096;2022-08-16T00:04:53;4.80;;;3.78;;
63959;SDS011;50136;51.374;0.096;2022-08-16T00:15:06;5.10;;;4.60;;
63959;SDS011;50136;51.374;0.096;2022-08-16T00:25:13;7.10;;;5.05;;
63959;SDS011;50136;51.374;0.096;2022-08-16T00:35:19;6.03;;;4.63;;
63959;SDS011;50136;51.374;0.096;2022-08-16T00:45:26;5.07;;;4.38;;
63959;SDS011;50136;51.374;0.096;2022-08-16T00:56:02;12.98;;;5.15;;
63959;SDS011;50136;51.374;0.096;2022-08-16T01:06:07;5.18;;;4.50;;
63959;SDS011;50136;51.374;0.096;2022-08-16T01:16:32;8.07;;;4.28;;
63959;SDS011;50136;51.374;0.096;2022-08-16T01:26:37;5.43;;;4.38;;
63959;SDS011;50136;51.374;0.096;2022-08-16T01:36:41;6.60;;;4.95;;
63959;SDS011;50136;51.374;0.096;2022-08-16T01:46:47;8.68;;;4.93;;
63959;SDS011;50136;51.374;0.096;2022-08-16T01:56:49;9.48;;;4.43;;
63959;SDS011;50136;51.374;0.096;2022-08-16T02:06:55;11.23;;;6.60;;
63959;SDS011;50136;51.374;0.096;2022-08-16T02:16:58;11.60;;;6.80;;
63959;SDS011;50136;51.374;0.096;2022-08-16T02:27:06;9.82;;;6.75;;
63959;SDS011;50136;51.374;0.096;2022-08-16T02:37:08;15.85;;;8.13;;
63959;SDS011;50136;51.374;0.096;2022-08-16T02:47:12;14.95;;;9.32;;
63959;SDS011;50136;51.374;0.096;2022-08-16T02:57:26;9.52;;;7.13;;
63959;SDS011;50136;51.374;0.096;2022-08-16T03:07:29;12.30;;;8.68;;
63959;SDS011;50136;51.374;0.096;2022-08-16T03:17:37;10.68;;;7.50;;
63959;SDS011;50136;51.374;0.096;2022-08-16T03:27:55;14.20;;;8.13;;
63959;SDS011;50136;51.374;0.096;2022-08-16T03:38:01;9.60;;;8.30;;
63959;SDS011;50136;51.374;0.096;2022-08-16T03:48:27;12.13;;;8.05;;
63959;SDS011;50136;51.374;0.096;2022-08-16T03:58:37;13.27;;;9.68;;
63959;SDS011;50136;51.374;0.096;2022-08-16T04:08:46;10.32;;;8.10;;
63959;SDS011;50136;51.374;0.096;2022-08-16T04:18:48;10.32;;;7.30;;
63959;SDS011;50136;51.374;0.096;2022-08-16T04:28:51;14.30;;;9.50;;
63959;SDS011;50136;51.374;0.096;2022-08-16T04:39:13;11.65;;;8.75;;
63959;SDS011;50136;51.374;0.096;2022-08-16T04:49:17;9.15;;;8.23;;
63959;SDS011;50136;51.374;0.096;2022-08-16T04:59:22;12.00;;;8.65;;
63959;SDS011;50136;51.374;0.096;2022-08-16T05:09:31;12.85;;;9.27;;
63959;SDS011;50136;51.374;0.096;2022-08-16T05:19:38;11.88;;;8.38;;
63959;SDS011;50136;51.374;0.096;2022-08-16T05:29:48;9.23;;;8.43;;
63959;SDS011;50136;51.374;0.096;2022-08-16T05:40:02;9.60;;;8.50;;
63959;SDS011;50136;51.374;0.096;2022-08-16T05:50:08;13.95;;;9.13;;
63959;SDS011;50136;51.374;0.096;2022-08-16T06:00:19;12.15;;;9.77;;
63959;SDS011;50136;51.374;0.096;2022-08-16T06:10:24;13.52;;;8.38;;
63959;SDS011;50136;51.374;0.096;2022-08-16T06:20:33;12.82;;;10.25;;
63959;SDS011;50136;51.374;0.096;2022-08-16T06:30:38;15.55;;;10.68;;
63959;SDS011;50136;51.374;0.096;2022-08-16T06:40:45;42.20;;;13.80;;
63959;SDS011;50136;51.374;0.096;2022-08-16T06:50:50;24.77;;;12.75;;
63959;SDS011;50136;51.374;0.096;2022-08-16T07:00:52;34.92;;;13.75;;
63959;SDS011;50136;51.374;0.096;2022-08-16T07:10:59;23.42;;;10.77;;
63959;SDS011;50136;51.374;0.096;2022-08-16T07:21:02;16.42;;;11.18;;
63959;SDS011;50136;51.374;0.096;2022-08-16T07:31:06;93.07;;;29.25;;
63959;SDS011;50136;51.374;0.096;2022-08-16T07:41:14;23.55;;;12.23;;
63959;SDS011;50136;51.374;0.096;2022-08-16T07:51:17;21.75;;;12.95;;
63959;SDS011;50136;51.374;0.096;2022-08-16T08:01:20;16.33;;;12.85;;
63959;SDS011;50136;51.374;0.096;2022-08-16T08:11:27;18.90;;;13.48;;
63959;SDS011;50136;51.374;0.096;2022-08-16T08:21:31;19.08;;;14.15;;
63959;SDS011;50136;51.374;0.096;2022-08-16T08:31:55;14.65;;;13.10;;
63959;SDS011;50136;51.374;0.096;2022-08-16T08:41:57;20.13;;;13.05;;
63959;SDS011;50136;51.374;0.096;2022-08-16T08:52:05;20.83;;;15.23;;
63959;SDS011;50136;51.374;0.096;2022-08-16T09:02:09;14.98;;;13.38;;
63959;SDS011;50136;51.374;0.096;2022-08-16T09:12:13;17.23;;;12.82;;
63959;SDS011;50136;51.374;0.096;2022-08-16T09:22:35;15.70;;;12.52;;
63959;SDS011;50136;51.374;0.096;2022-08-16T09:32:38;17.40;;;11.65;;
63959;SDS011;50136;51.374;0.096;2022-08-16T09:42:47;20.48;;;14.40;;
63959;SDS011;50136;51.374;0.096;2022-08-16T09:53:00;17.80;;;13.98;;
63959;SDS011;50136;51.374;0.096;2022-08-16T10:03:04;23.27;;;15.20;;
63959;SDS011;50136;51.374;0.096;2022-08-16T10:13:11;32.25;;;17.50;;
63959;SDS011;50136;51.374;0.096;2022-08-16T10:23:14;25.65;;;18.27;;
63959;SDS011;50136;51.374;0.096;2022-08-16T10:33:19;28.02;;;15.20;;
63959;SDS011;50136;51.374;0.096;2022-08-16T10:43:21;13.63;;;10.70;;
63959;SDS011;50136;51.374;0.096;2022-08-16T10:53:24;16.08;;;12.48;;
63959;SDS011;50136;51.374;0.096;2022-08-16T11:03:33;16.52;;;11.73;;
63959;SDS011;50136;51.374;0.096;2022-08-16T11:13:46;10.00;;;7.25;;
63959;SDS011;50136;51.374;0.096;2022-08-16T11:24:08;12.25;;;8.75;;
63959;SDS011;50136;51.374;0.096;2022-08-16T11:34:32;12.50;;;6.75;;
63959;SDS011;50136;51.374;0.096;2022-08-16T11:44:53;8.45;;;5.25;;
63959;SDS011;50136;51.374;0.096;2022-08-16T11:54:58;11.98;;;5.18;;
63959;SDS011;50136;51.374;0.096;2022-08-16T12:05:00;13.50;;;5.68;;
63959;SDS011;50136;51.374;0.096;2022-08-16T12:15:04;6.45;;;4.53;;
63959;SDS011;50136;51.374;0.096;2022-08-16T12:25:08;4.43;;;2.85;;
63959;SDS011;50136;51.374;0.096;2022-08-16T12:35:17;3.13;;;2.83;;
63959;SDS011;50136;51.374;0.096;2022-08-16T12:45:22;4.88;;;3.38;;
63959;SDS011;50136;51.374;0.096;2022-08-16T12:55:26;3.00;;;1.60;;
63959;SDS011;50136;51.374;0.096;2022-08-16T13:05:42;1.93;;;1.37;;
63959;SDS011;50136;51.374;0.096;2022-08-16T13:15:58;2.67;;;1.90;;
63959;SDS011;50136;51.374;0.096;2022-08-16T13:26:15;3.97;;;1.92;;
63959;SDS011;50136;51.374;0.096;2022-08-16T13:36:19;2.53;;;1.65;;
63959;SDS011;50136;51.374;0.096;2022-08-16T13:46:41;3.53;;;2.95;;
63959;SDS011;50136;51.374;0.096;2022-08-16T13:56:45;3.83;;;3.40;;
63959;SDS011;50136;51.374;0.096;2022-08-16T14:06:47;4.20;;;2.90;;
63959;SDS011;50136;51.374;0.096;2022-08-16T14:16:50;4.78;;;2.80;;
63959;SDS011;50136;51.374;0.096;2022-08-16T14:26:52;3.42;;;2.60;;
63959;SDS011;50136;51.374;0.096;2022-08-16T14:36:58;4.03;;;3.03;;
63959;SDS011;50136;51.374;0.096;2022-08-16T14:47:00;5.45;;;3.70;;
63959;SDS011;50136;51.374;0.096;2022-08-16T14:57:06;4.82;;;3.90;;
63959;SDS011;50136;51.374;0.096;2022-08-16T15:07:08;3.65;;;3.35;;
63959;SDS011;50136;51.374;0.096;2022-08-16T15:17:14;5.72;;;4.18;;
63959;SDS011;50136;51.374;0.096;2022-08-16T15:27:19;11.65;;;6.00;;
63959;SDS011;50136;51.374;0.096;2022-08-16T15:37:22;6.20;;;5.43;;
63959;SDS011;50136;51.374;0.096;2022-08-16T15:47:42;5.60;;;5.10;;
63959;SDS011;50136;51.374;0.096;2022-08-16T15:57:57;7.45;;;6.03;;
63959;SDS011;50136;51.374;0.096;2022-08-16T16:08:00;7.30;;;6.40;;
63959;SDS011;50136;51.374;0.096;2022-08-16T16:18:14;14.07;;;8.32;;
63959;SDS011;50136;51.374;0.096;2022-08-16T16:28:19;10.25;;;8.93;;
63959;SDS011;50136;51.374;0.096;2022-08-16T16:38:45;12.25;;;9.63;;
63959;SDS011;50136;51.374;0.096;2022-08-16T16:48:47;12.88;;;9.20;;
63959;SDS011;50136;51.374;0.096;2022-08-16T16:58:50;14.73;;;9.88;;
63959;SDS011;50136;51.374;0.096;2022-08-16T17:08:55;15.55;;;10.02;;
63959;SDS011;50136;51.374;0.096;2022-08-16T17:18:59;11.80;;;9.25;;
63959;SDS011;50136;51.374;0.096;2022-08-16T17:29:16;12.33;;;10.73;;
63959;SDS011;50136;51.374;0.096;2022-08-16T17:39:22;11.18;;;10.00;;
63959;SDS011;50136;51.374;0.096;2022-08-16T17:49:24;11.65;;;9.65;;
63959;SDS011;50136;51.374;0.096;2022-08-16T17:59:28;11.65;;;9.55;;
63959;SDS011;50136;51.374;0.096;2022-08-16T18:20:35;10.20;;;8.55;;
63959;SDS011;50136;51.374;0.096;2022-08-16T18:30:37;21.95;;;14.90;;
63959;SDS011;50136;51.374;0.096;2022-08-16T18:40:41;10.52;;;9.15;;
63959;SDS011;50136;51.374;0.096;2022-08-16T18:50:44;12.35;;;8.77;;
63959;SDS011;50136;51.374;0.096;2022-08-16T19:01:09;11.02;;;9.13;;
63959;SDS011;50136;51.374;0.096;2022-08-16T19:11:12;16.05;;;13.07;;
63959;SDS011;50136;51.374;0.096;2022-08-16T19:21:18;14.32;;;12.48;;
63959;SDS011;50136;51.374;0.096;2022-08-16T19:31:20;11.68;;;10.13;;
63959;SDS011;50136;51.374;0.096;2022-08-16T19:41:26;14.68;;;11.27;;
63959;SDS011;50136;51.374;0.096;2022-08-16T19:51:28;14.70;;;11.25;;
63959;SDS011;50136;51.374;0.096;2022-08-16T20:01:32;14.45;;;11.20;;
63959;SDS011;50136;51.374;0.096;2022-08-16T20:11:52;13.07;;;10.32;;
63959;SDS011;50136;51.374;0.096;2022-08-16T20:22:09;13.73;;;10.68;;
63959;SDS011;50136;51.374;0.096;2022-08-16T20:32:41;13.85;;;10.70;;
63959;SDS011;50136;51.374;0.096;2022-08-16T20:42:46;15.25;;;9.30;;
63959;SDS011;50136;51.374;0.096;2022-08-16T20:52:59;12.48;;;9.65;;
63959;SDS011;50136;51.374;0.096;2022-08-16T21:03:06;13.35;;;11.13;;
63959;SDS011;50136;51.374;0.096;2022-08-16T21:13:09;11.52;;;10.52;;
63959;SDS011;50136;51.374;0.096;2022-08-16T21:23:12;18.40;;;10.63;;
63959;SDS011;50136;51.374;0.096;2022-08-16T21:33:15;15.25;;;12.02;;
63959;SDS011;50136;51.374;0.096;2022-08-16T21:43:20;14.55;;;12.63;;
63959;SDS011;50136;51.374;0.096;2022-08-16T21:53:22;15.57;;;12.55;;
63959;SDS011;50136;51.374;0.096;2022-08-16T22:03:26;15.88;;;11.25;;
63959;SDS011;50136;51.374;0.096;2022-08-16T22:13:28;13.00;;;10.77;;
63959;SDS011;50136;51.374;0.096;2022-08-16T22:23:32;15.77;;;12.10;;
63959;SDS011;50136;51.374;0.096;2022-08-16T22:33:34;13.77;;;12.18;;
63959;SDS011;50136;51.374;0.096;2022-08-16T22:43:37;13.38;;;11.95;;
63959;SDS011;50136;51.374;0.096;2022-08-16T22:53:39;17.73;;;12.13;;
63959;SDS011;50136;51.374;0.096;2022-08-16T23:03:43;14.02;;;11.98;;
63959;SDS011;50136;51.374;0.096;2022-08-16T23:13:45;13.18;;;11.75;;
63959;SDS011;50136;51.374;0.096;2022-08-16T23:23:55;14.50;;;12.32;;
63959;SDS011;50136;51.374;0.096;2022-08-16T23:33:57;15.57;;;12.50;;
63959;SDS011;50136;51.374;0.096;2022-08-16T23:44:01;20.83;;;13.32;;
63959;SDS011;50136;51.374;0.096;2022-08-16T23:54:23;13.77;;;11.48;;
